Viroqua, WI (54665)

9:41 PM CDT on May 24, 2015 (GMT -0500)
Faith Farms Viroqua | | Change Station
CLOSE
Current Station
Personal Weather Station
Location: Viroqua, WI
Elevation: 1217 ft
Nearby Weather Stations

Elev 1217 ft 43.61 °N, 90.98 °W | Updated 18 seconds ago

Overcast
Overcast
57.6 °F
Feels Like 57.6 °F
N
8.0
Wind Variable Wind from SSW
Gusts 9.0 mph

Today
High -- | Low -- °F
--% Chance of Precip.
Yesterday
High -- | Low -- °F
Precip. -- in
5:30 AM 8:30 PM
Waxing Crescent, 44% visible
Pressure 29.87 in
Visibility 3.0 miles
Clouds Overcast 300 ft
Dew Point 56 °F
Humidity 96%
Rainfall 0.56 in
Snow Depth Not available.
UV 0 out of 12
Pollen 6.30 out of 12
Air Quality Not available.
Flu Activity Sporadic
METAR KY51 250215Z AUTO 11011KT 3SM OVC003 14/14 A2987 RMK AO1 T01410141

More Conditions Fewer Conditions

Pressure 29.87 in
Visibility 3.0 miles
Clouds Overcast 300 ft
Dew Point 56 °F
Humidity 96%
Rainfall 0.56 in
Snow Depth Not available.
UV 0 out of 12
Pollen 6.30 out of 12
Air Quality Not available.
Flu Activity Sporadic
METAR KY51 250215Z AUTO 11011KT 3SM OVC003 14/14 A2987 RMK AO1 T01410141

More Conditions Fewer Conditions

10-Day Weather Forecast

Almanac

Astronomy

May. 24, 2015 Rise Set
Actual Time
Civil Twilight
Nautical Twilight
Astronomical Twilight
Moon
Length of Visible Light
Length of Day
Tomorrow will be .
, % of the Moon is Illuminated

Today's Extremes

State Highs State Lows

Community

WunderPhotos

Upload Photos

1,823,936 photos uploaded!

WunderBlogs® & News

Nearby

Air Quality

  Air Quality AQ Index Pollutant
Not available.

Snow Depth

Station Depth Elevation

Earthquake Activity

City Distance Mag. Time & Date
Minimum magnitude displayed is 2.5.

Coastal Water Temperatures

Place Temperature

Stations

Nearby Weather Stations

Station Location Temp. Windchill Dew Point Humidity Wind Precip. Elev Updated Type